createdAt,value
2023-08-18T00:01:09.166Z,7.60
2023-08-18T00:03:37.029Z,8.07
2023-08-18T00:06:06.539Z,7.60
2023-08-18T00:08:34.389Z,7.95
2023-08-18T00:11:03.010Z,8.10
2023-08-18T00:13:30.866Z,7.50
2023-08-18T00:15:58.891Z,8.18
2023-08-18T00:18:26.756Z,8.50
2023-08-18T00:20:54.663Z,8.80
2023-08-18T00:23:23.871Z,8.30
2023-08-18T00:25:51.736Z,8.52
2023-08-18T00:28:19.529Z,8.63
2023-08-18T00:30:47.361Z,8.30
2023-08-18T00:33:15.213Z,8.30
2023-08-18T00:35:43.036Z,8.40
2023-08-18T00:38:10.864Z,8.25
2023-08-18T00:40:40.031Z,8.82
2023-08-18T00:43:07.850Z,8.85
2023-08-18T00:45:36.181Z,8.52
2023-08-18T00:48:04.831Z,8.38
2023-08-18T00:50:32.889Z,8.68
2023-08-18T00:53:01.726Z,8.65
2023-08-18T00:55:31.360Z,8.60
2023-08-18T00:58:02.507Z,8.90
2023-08-18T01:00:30.630Z,8.95
2023-08-18T01:03:00.153Z,8.95
2023-08-18T01:05:28.044Z,8.60
2023-08-18T01:07:56.102Z,8.68
2023-08-18T01:10:25.976Z,8.43
2023-08-18T01:13:04.034Z,8.55
2023-08-18T01:15:37.162Z,9.32
2023-08-18T01:18:07.517Z,8.80
2023-08-18T01:20:35.771Z,8.63
2023-08-18T01:23:06.606Z,8.73
2023-08-18T01:25:35.933Z,8.77
2023-08-18T01:28:05.283Z,8.32
2023-08-18T01:30:37.191Z,8.40
2023-08-18T01:33:17.726Z,8.30
2023-08-18T01:35:46.805Z,8.43
2023-08-18T01:38:18.040Z,8.20
2023-08-18T01:40:48.522Z,7.72
2023-08-18T01:43:16.379Z,7.72
2023-08-18T01:45:44.216Z,7.78
2023-08-18T01:48:12.168Z,8.02
2023-08-18T01:50:39.996Z,7.63
2023-08-18T01:53:07.822Z,7.53
2023-08-18T01:55:36.981Z,7.43
2023-08-18T01:58:05.041Z,7.75
2023-08-18T02:00:32.905Z,7.25
2023-08-18T02:03:00.974Z,7.80
2023-08-18T02:05:29.125Z,7.32
2023-08-18T02:07:56.973Z,7.43
2023-08-18T02:10:24.809Z,7.38
2023-08-18T02:12:53.950Z,7.07
2023-08-18T02:15:21.870Z,7.30
2023-08-18T02:17:49.673Z,7.05
2023-08-18T02:20:17.698Z,7.18
2023-08-18T02:22:46.801Z,7.38
2023-08-18T02:25:14.893Z,6.47
2023-08-18T02:27:43.458Z,6.70
2023-08-18T02:30:13.064Z,6.97
2023-08-18T02:32:40.918Z,6.70
2023-08-18T02:35:09.324Z,6.57
2023-08-18T02:37:37.224Z,6.93
2023-08-18T02:40:06.692Z,6.97
2023-08-18T02:42:35.232Z,6.90
2023-08-18T02:45:03.097Z,7.00
2023-08-18T02:47:32.516Z,7.40
2023-08-18T02:50:00.590Z,7.18
2023-08-18T02:52:28.392Z,7.07
2023-08-18T02:54:56.214Z,7.75
2023-08-18T02:57:24.502Z,7.18
2023-08-18T02:59:52.310Z,7.63
2023-08-18T03:02:20.140Z,7.55
2023-08-18T03:04:49.350Z,7.45
2023-08-18T03:07:17.208Z,7.47
2023-08-18T03:09:45.091Z,7.40
2023-08-18T03:12:12.879Z,7.43
2023-08-18T03:14:41.415Z,7.65
2023-08-18T03:17:09.314Z,7.55
2023-08-18T03:19:37.189Z,7.65
2023-08-18T03:22:06.530Z,8.38
2023-08-18T03:24:34.340Z,8.50
2023-08-18T03:27:02.202Z,8.18
2023-08-18T03:29:30.040Z,8.02
2023-08-18T03:31:58.713Z,7.68
2023-08-18T03:34:26.615Z,7.95
2023-08-18T03:36:54.448Z,7.93
2023-08-18T03:39:24.849Z,8.05
2023-08-18T03:41:52.663Z,8.07
2023-08-18T03:44:21.362Z,8.45
2023-08-18T03:46:49.278Z,8.70
2023-08-18T03:49:17.113Z,8.55
2023-08-18T03:51:44.946Z,7.70
2023-08-18T03:54:12.828Z,8.48
2023-08-18T03:56:42.005Z,9.48
2023-08-18T03:59:09.904Z,8.55
2023-08-18T04:01:37.884Z,9.40
2023-08-18T04:04:06.541Z,9.30
2023-08-18T04:06:34.628Z,9.07
2023-08-18T04:09:08.008Z,9.48
2023-08-18T04:11:36.519Z,8.90
2023-08-18T04:14:06.275Z,10.15
2023-08-18T04:16:34.170Z,9.45
2023-08-18T04:19:04.595Z,10.18
2023-08-18T04:21:34.029Z,10.02
2023-08-18T04:24:02.046Z,10.50
2023-08-18T04:26:30.555Z,10.40
2023-08-18T04:28:58.399Z,10.68
2023-08-18T04:31:28.130Z,10.57
2023-08-18T04:33:59.577Z,10.93
2023-08-18T04:36:28.613Z,10.93
2023-08-18T04:38:56.765Z,11.38
2023-08-18T04:41:28.662Z,12.32
2023-08-18T04:43:56.491Z,12.05
2023-08-18T04:46:28.342Z,11.15
2023-08-18T04:49:00.696Z,12.88
2023-08-18T04:51:29.479Z,12.23
2023-08-18T04:53:57.741Z,12.25
2023-08-18T04:56:25.715Z,12.10
2023-08-18T04:58:53.561Z,12.93
2023-08-18T05:01:22.218Z,12.43
2023-08-18T05:03:51.608Z,12.23
2023-08-18T05:06:20.872Z,13.50
2023-08-18T05:08:48.720Z,12.35
2023-08-18T05:11:16.559Z,12.48
2023-08-18T05:13:44.606Z,12.00
2023-08-18T05:16:12.472Z,13.02
2023-08-18T05:18:40.364Z,13.95
2023-08-18T05:21:09.554Z,13.82
2023-08-18T05:23:37.359Z,13.55
2023-08-18T05:26:05.187Z,13.35
2023-08-18T05:28:34.082Z,13.70
2023-08-18T05:31:02.702Z,14.35
2023-08-18T05:33:30.670Z,14.38
2023-08-18T05:35:59.887Z,13.40
2023-08-18T05:38:29.195Z,13.77
2023-08-18T05:41:10.715Z,13.80
2023-08-18T05:43:39.646Z,13.75
2023-08-18T05:46:08.119Z,13.95
2023-08-18T05:48:36.132Z,14.00
2023-08-18T05:51:04.480Z,13.93
2023-08-18T05:53:33.899Z,14.52
2023-08-18T05:56:01.831Z,13.70
2023-08-18T05:58:29.732Z,14.30
2023-08-18T06:00:57.546Z,14.02
2023-08-18T06:03:25.407Z,13.93
2023-08-18T06:05:53.329Z,14.10
2023-08-18T06:08:21.138Z,14.02
2023-08-18T06:10:51.163Z,13.68
2023-08-18T06:13:18.943Z,13.85
2023-08-18T06:15:46.741Z,13.63
2023-08-18T06:18:14.531Z,13.95
2023-08-18T06:20:42.374Z,13.27
2023-08-18T06:23:10.131Z,13.57
2023-08-18T06:25:37.960Z,14.27
2023-08-18T06:28:07.812Z,13.23
2023-08-18T06:30:35.640Z,13.93
2023-08-18T06:33:04.401Z,13.68
2023-08-18T06:35:32.317Z,12.98
2023-08-18T06:38:00.174Z,13.05
2023-08-18T06:40:28.065Z,12.98
2023-08-18T06:42:55.859Z,12.65
2023-08-18T06:45:25.026Z,12.85
2023-08-18T06:47:52.925Z,12.55
2023-08-18T06:50:20.824Z,12.50
2023-08-18T06:52:49.310Z,12.88
2023-08-18T06:55:17.320Z,12.13
2023-08-18T06:57:48.900Z,12.10
2023-08-18T07:00:21.779Z,11.88
2023-08-18T07:02:51.773Z,12.50
2023-08-18T07:05:19.724Z,12.15
2023-08-18T07:07:47.749Z,11.75
2023-08-18T07:10:15.584Z,11.65
2023-08-18T07:12:43.414Z,11.23
2023-08-18T07:15:11.802Z,10.82
2023-08-18T07:17:39.738Z,10.60
2023-08-18T07:20:11.797Z,10.73
2023-08-18T07:22:39.692Z,11.18
2023-08-18T07:25:10.279Z,10.07
2023-08-18T07:27:38.732Z,10.77
2023-08-18T07:30:10.024Z,11.00
2023-08-18T07:32:41.069Z,10.82
2023-08-18T07:35:11.358Z,10.52
2023-08-18T07:40:11.603Z,10.63
2023-08-18T07:42:39.669Z,10.63
2023-08-18T07:45:09.047Z,10.85
2023-08-18T07:47:38.852Z,11.15
2023-08-18T07:50:08.926Z,10.10
2023-08-18T07:52:38.651Z,11.52
2023-08-18T07:55:08.828Z,10.95
2023-08-18T07:57:38.131Z,11.85
2023-08-18T08:00:09.580Z,11.35
2023-08-18T08:02:40.911Z,11.55
2023-08-18T08:05:09.865Z,11.50
2023-08-18T08:07:39.127Z,11.95
2023-08-18T08:10:07.962Z,11.32
2023-08-18T08:12:37.852Z,10.43
2023-08-18T08:15:07.094Z,11.60
2023-08-18T08:17:35.357Z,11.02
2023-08-18T08:20:07.444Z,12.02
2023-08-18T08:22:35.238Z,11.15
2023-08-18T08:25:06.413Z,11.57
2023-08-18T08:27:34.286Z,11.65
2023-08-18T08:30:03.139Z,11.15
2023-08-18T08:32:31.475Z,11.23
2023-08-18T08:34:59.613Z,11.73
2023-08-18T08:37:27.663Z,11.27
2023-08-18T08:39:55.560Z,11.88
2023-08-18T08:42:25.713Z,11.65
2023-08-18T08:44:53.653Z,11.30
2023-08-18T08:47:21.854Z,11.65
2023-08-18T08:49:55.839Z,11.30
2023-08-18T08:52:25.485Z,11.65
2023-08-18T08:55:00.375Z,10.40
2023-08-18T08:57:29.972Z,11.00
2023-08-18T08:59:58.043Z,10.75
2023-08-18T09:02:25.802Z,10.80
2023-08-18T09:04:53.666Z,10.40
2023-08-18T09:07:21.547Z,10.30
2023-08-18T09:09:49.323Z,10.45
2023-08-18T09:12:17.190Z,10.57
2023-08-18T09:14:46.376Z,10.55
2023-08-18T09:17:14.459Z,10.48
2023-08-18T09:19:42.569Z,10.63
2023-08-18T09:22:11.402Z,10.18
2023-08-18T09:24:39.288Z,10.15
2023-08-18T09:27:07.798Z,9.73
2023-08-18T09:29:36.885Z,9.23
2023-08-18T09:32:12.419Z,9.82
2023-08-18T09:34:43.967Z,9.90
2023-08-18T09:37:11.950Z,10.00
2023-08-18T09:39:40.112Z,9.57
2023-08-18T09:42:09.133Z,9.27
2023-08-18T09:44:37.030Z,10.05
2023-08-18T09:47:07.804Z,10.20
2023-08-18T09:54:38.378Z,8.90
2023-08-18T09:57:10.508Z,10.52
2023-08-18T09:59:43.366Z,9.30
2023-08-18T10:02:18.626Z,9.95
2023-08-18T10:04:46.554Z,9.15
2023-08-18T10:07:16.321Z,8.75
2023-08-18T10:09:44.910Z,8.70
2023-08-18T10:12:13.421Z,9.38
2023-08-18T10:14:41.818Z,8.75
2023-08-18T10:17:11.220Z,9.23
2023-08-18T10:19:52.703Z,8.80
2023-08-18T10:22:21.528Z,9.18
2023-08-18T10:24:50.204Z,8.40
2023-08-18T10:27:37.160Z,8.93
2023-08-18T10:30:26.244Z,9.10
2023-08-18T10:32:55.419Z,8.93
2023-08-18T10:35:26.522Z,9.32
2023-08-18T10:37:55.904Z,9.55
2023-08-18T10:40:25.396Z,9.05
2023-08-18T10:42:54.829Z,9.68
2023-08-18T10:45:28.460Z,8.55
2023-08-18T10:47:59.721Z,9.35
2023-08-18T10:50:33.251Z,9.32
2023-08-18T10:53:02.230Z,9.20
2023-08-18T10:55:31.235Z,8.88
2023-08-18T10:57:59.627Z,8.10
2023-08-18T11:00:32.507Z,8.60
2023-08-18T11:03:00.414Z,8.52
2023-08-18T11:05:31.118Z,8.80
2023-08-18T11:10:28.969Z,9.50
2023-08-18T11:12:58.535Z,7.90
2023-08-18T11:15:26.955Z,8.40
2023-08-18T11:17:55.002Z,9.05
2023-08-18T11:20:23.022Z,8.50
2023-08-18T11:22:52.619Z,9.52
2023-08-18T11:25:23.999Z,8.00
2023-08-18T11:27:53.875Z,8.95
2023-08-18T11:30:22.567Z,7.55
2023-08-18T11:32:51.002Z,9.68
2023-08-18T11:35:20.510Z,9.95
2023-08-18T11:37:50.020Z,9.90
2023-08-18T11:40:19.854Z,7.88
2023-08-18T11:42:50.529Z,9.68
2023-08-18T11:45:20.549Z,8.90
2023-08-18T11:47:49.910Z,8.55
2023-08-18T11:50:21.554Z,8.50
2023-08-18T11:52:53.009Z,9.02
2023-08-18T11:55:31.802Z,8.65
2023-08-18T11:58:06.902Z,8.60
2023-08-18T12:00:37.120Z,7.60
2023-08-18T12:03:06.336Z,8.38
2023-08-18T12:05:39.437Z,9.38
2023-08-18T12:08:10.720Z,8.05
2023-08-18T12:10:39.312Z,8.30
2023-08-18T12:13:08.448Z,7.18
2023-08-18T12:15:36.358Z,6.55
2023-08-18T12:18:04.866Z,7.38
2023-08-18T12:20:33.725Z,6.88
2023-08-18T12:23:01.773Z,6.90
2023-08-18T12:25:29.604Z,7.05
2023-08-18T12:27:57.575Z,7.20
2023-08-18T12:30:27.116Z,8.05
2023-08-18T12:32:55.146Z,7.47
2023-08-18T12:35:23.075Z,6.35
2023-08-18T12:37:51.025Z,7.85
2023-08-18T12:40:18.904Z,7.63
2023-08-18T12:42:46.814Z,7.25
2023-08-18T12:45:15.141Z,7.47
2023-08-18T12:47:44.371Z,6.60
2023-08-18T12:50:13.665Z,6.95
2023-08-18T12:52:43.431Z,6.95
2023-08-18T12:55:12.194Z,6.32
2023-08-18T12:57:40.150Z,6.43
2023-08-18T13:00:09.235Z,5.65
2023-08-18T13:02:37.093Z,5.82
2023-08-18T13:05:06.614Z,6.93
2023-08-18T13:07:34.483Z,6.05
2023-08-18T13:10:02.410Z,5.53
2023-08-18T13:12:30.235Z,6.32
2023-08-18T13:14:58.026Z,5.22
2023-08-18T13:17:25.935Z,5.20
2023-08-18T13:19:57.397Z,5.50
2023-08-18T13:22:27.280Z,5.50
2023-08-18T13:24:55.866Z,5.78
2023-08-18T13:27:25.400Z,4.85
2023-08-18T13:29:54.289Z,4.47
2023-08-18T13:32:22.309Z,4.10
2023-08-18T13:34:50.132Z,4.72
2023-08-18T13:37:17.970Z,5.00
2023-08-18T13:39:47.198Z,5.05
2023-08-18T13:42:16.065Z,4.50
2023-08-18T13:44:43.956Z,4.40
2023-08-18T13:47:11.774Z,5.20
2023-08-18T13:49:39.705Z,4.30
2023-08-18T13:52:08.051Z,4.80
2023-08-18T13:54:35.856Z,6.20
2023-08-18T13:57:05.126Z,4.63
2023-08-18T13:59:33.766Z,5.53
2023-08-18T14:02:01.836Z,5.20
2023-08-18T14:04:29.846Z,5.07
2023-08-18T14:06:58.909Z,4.28
2023-08-18T14:09:27.305Z,4.70
2023-08-18T14:11:55.147Z,4.50
2023-08-18T14:14:24.316Z,4.95
2023-08-18T14:16:52.611Z,4.85
2023-08-18T14:19:20.567Z,4.90
2023-08-18T14:21:48.379Z,5.07
2023-08-18T14:24:16.156Z,4.53
2023-08-18T14:26:44.023Z,5.20
2023-08-18T14:29:15.541Z,6.13
2023-08-18T14:31:45.882Z,5.93
2023-08-18T14:34:14.220Z,6.20
2023-08-18T14:36:42.166Z,5.88
2023-08-18T14:39:10.019Z,4.82
2023-08-18T14:41:38.223Z,6.13
2023-08-18T14:44:06.386Z,5.70
2023-08-18T14:46:34.198Z,5.30
2023-08-18T14:49:05.334Z,5.82
2023-08-18T14:51:33.376Z,5.70
2023-08-18T14:54:01.236Z,5.47
2023-08-18T14:56:29.743Z,5.03
2023-08-18T14:58:57.676Z,5.05
2023-08-18T15:01:33.251Z,5.20
2023-08-18T15:04:01.191Z,4.47
2023-08-18T15:06:30.318Z,3.97
2023-08-18T15:08:58.178Z,4.95
2023-08-18T15:11:26.090Z,4.82
2023-08-18T15:13:53.980Z,4.90
2023-08-18T15:16:21.928Z,4.40
2023-08-18T15:18:49.795Z,4.80
2023-08-18T15:21:17.606Z,4.20
2023-08-18T15:23:46.738Z,4.57
2023-08-18T15:26:14.552Z,4.60
2023-08-18T15:28:42.356Z,4.53
2023-08-18T15:31:13.270Z,4.45
2023-08-18T15:33:42.601Z,5.28
2023-08-18T15:36:11.576Z,5.10
2023-08-18T15:38:39.668Z,5.40
2023-08-18T15:41:09.530Z,4.93
2023-08-18T15:43:37.451Z,4.65
2023-08-18T15:46:08.082Z,5.50
2023-08-18T15:48:37.056Z,5.90
2023-08-18T15:51:05.075Z,5.55
2023-08-18T15:53:33.126Z,5.57
2023-08-18T15:56:01.032Z,5.32
2023-08-18T15:58:30.287Z,5.60
2023-08-18T16:00:58.902Z,6.05
2023-08-18T16:03:27.706Z,5.45
2023-08-18T16:05:55.708Z,5.47
2023-08-18T16:08:23.995Z,6.88
2023-08-18T16:10:51.886Z,6.05
2023-08-18T16:13:19.740Z,5.90
2023-08-18T16:16:00.167Z,6.60
2023-08-18T16:18:28.888Z,6.90
2023-08-18T16:20:57.329Z,6.10
2023-08-18T16:23:25.689Z,6.20
2023-08-18T16:25:53.944Z,6.07
2023-08-18T16:28:21.771Z,5.50
2023-08-18T16:30:53.112Z,6.20
2023-08-18T16:33:23.123Z,6.82
2023-08-18T16:35:50.982Z,6.47
2023-08-18T16:38:18.809Z,7.05
2023-08-18T16:40:50.639Z,7.03
2023-08-18T16:43:18.576Z,7.70
2023-08-18T16:45:46.351Z,7.70
2023-08-18T16:48:15.738Z,6.53
2023-08-18T16:50:44.985Z,7.82
2023-08-18T16:53:12.911Z,7.75
2023-08-18T16:55:42.986Z,7.70
2023-08-18T16:58:10.790Z,7.63
2023-08-18T17:00:41.055Z,7.57
2023-08-18T17:03:09.465Z,8.43
2023-08-18T17:05:38.996Z,7.88
2023-08-18T17:08:07.564Z,8.10
2023-08-18T17:10:35.687Z,8.32
2023-08-18T17:13:06.536Z,7.55
2023-08-18T17:15:35.443Z,7.75
2023-08-18T17:18:03.312Z,6.78
2023-08-18T17:20:31.159Z,8.65
2023-08-18T17:23:00.359Z,8.13
2023-08-18T17:25:28.204Z,8.15
2023-08-18T17:27:56.023Z,8.50
2023-08-18T17:30:23.807Z,7.80
2023-08-18T17:32:51.776Z,8.80
2023-08-18T17:35:19.605Z,8.45
2023-08-18T17:37:47.427Z,8.02
2023-08-18T17:40:17.134Z,8.15
2023-08-18T17:42:45.301Z,8.10
2023-08-18T17:45:13.222Z,8.43
2023-08-18T17:47:41.065Z,8.57
2023-08-18T17:50:09.528Z,8.07
2023-08-18T17:52:37.374Z,8.77
2023-08-18T17:55:05.512Z,8.90
2023-08-18T17:57:34.808Z,8.93
2023-08-18T18:00:02.674Z,8.27
2023-08-18T18:02:34.122Z,9.48
2023-08-18T18:05:02.043Z,8.60
2023-08-18T18:07:30.098Z,8.70
2023-08-18T18:09:58.310Z,9.07
2023-08-18T18:12:26.115Z,9.52
2023-08-18T18:14:55.702Z,9.15
2023-08-18T18:17:23.601Z,9.32
2023-08-18T18:19:51.669Z,9.40
2023-08-18T18:22:19.807Z,9.75
2023-08-18T18:24:47.828Z,9.25
2023-08-18T18:27:15.660Z,10.20
2023-08-18T18:29:43.682Z,9.15
2023-08-18T18:32:13.561Z,9.80
2023-08-18T18:34:41.363Z,9.00
2023-08-18T18:37:10.422Z,9.75
2023-08-18T18:39:39.601Z,9.40
2023-08-18T18:42:07.853Z,9.13
2023-08-18T18:44:37.151Z,9.57
2023-08-18T18:47:05.666Z,8.98
2023-08-18T18:49:34.893Z,9.27
2023-08-18T18:52:02.762Z,9.43
2023-08-18T18:54:30.587Z,9.52
2023-08-18T18:56:58.731Z,9.93
2023-08-18T18:59:26.602Z,9.68
2023-08-18T19:01:54.429Z,9.45
2023-08-18T19:04:22.235Z,10.13
2023-08-18T19:06:52.770Z,9.32
2023-08-18T19:09:20.645Z,10.45
2023-08-18T19:11:50.969Z,10.70
2023-08-18T19:14:18.881Z,10.55
2023-08-18T19:16:46.708Z,11.30
2023-08-18T19:19:18.044Z,10.02
2023-08-18T19:21:46.148Z,10.32
2023-08-18T19:24:15.390Z,10.50
2023-08-18T19:26:47.948Z,11.02
2023-08-18T19:29:16.057Z,11.10
2023-08-18T19:31:46.266Z,11.50
2023-08-18T19:34:15.816Z,11.18
2023-08-18T19:36:43.730Z,10.77
2023-08-18T19:39:11.560Z,10.52
2023-08-18T19:41:40.806Z,11.40
2023-08-18T19:44:08.705Z,11.18
2023-08-18T19:46:36.640Z,11.20
2023-08-18T19:49:04.831Z,10.88
2023-08-18T19:51:32.674Z,10.38
2023-08-18T19:54:00.470Z,10.50
2023-08-18T19:56:28.377Z,10.90
2023-08-18T19:58:57.539Z,10.18
2023-08-18T20:01:25.389Z,11.27
2023-08-18T20:03:53.226Z,11.68
2023-08-18T20:06:21.058Z,12.10
2023-08-18T20:08:49.079Z,12.77
2023-08-18T20:11:17.000Z,13.15
2023-08-18T20:13:44.807Z,12.82
2023-08-18T20:16:14.073Z,13.20
2023-08-18T20:18:42.047Z,13.05
2023-08-18T20:21:09.837Z,13.43
2023-08-18T20:23:38.014Z,13.57
2023-08-18T20:26:06.015Z,13.60
2023-08-18T20:28:33.893Z,12.70
2023-08-18T20:31:06.240Z,13.10
2023-08-18T20:33:36.454Z,13.48
2023-08-18T20:36:04.506Z,13.68
2023-08-18T20:38:34.894Z,13.32
2023-08-18T20:41:09.864Z,14.55
2023-08-18T20:43:37.948Z,13.70
2023-08-18T20:46:05.849Z,13.18
2023-08-18T20:48:35.186Z,13.43
2023-08-18T20:51:03.173Z,13.10
2023-08-18T20:53:31.036Z,14.57
2023-08-18T20:55:58.909Z,14.82
2023-08-18T20:58:26.742Z,13.82
2023-08-18T21:00:57.608Z,14.40
2023-08-18T21:03:25.579Z,15.70
2023-08-18T21:05:54.824Z,15.45
2023-08-18T21:08:22.702Z,16.00
2023-08-18T21:10:50.650Z,15.05
2023-08-18T21:13:19.828Z,14.50
2023-08-18T21:15:47.725Z,14.93
2023-08-18T21:18:15.534Z,14.05
2023-08-18T21:20:44.725Z,13.48
2023-08-18T21:23:14.253Z,13.80
2023-08-18T21:25:42.132Z,16.23
2023-08-18T21:28:09.913Z,15.60
2023-08-18T21:30:37.753Z,16.33
2023-08-18T21:33:06.121Z,14.68
2023-08-18T21:35:34.708Z,15.25
2023-08-18T21:38:02.650Z,15.63
2023-08-18T21:40:31.868Z,13.85
2023-08-18T21:43:00.801Z,14.90
2023-08-18T21:45:29.120Z,15.45
2023-08-18T21:47:57.150Z,15.18
2023-08-18T21:50:25.018Z,14.98
2023-08-18T21:52:52.842Z,10.98
2023-08-18T21:55:20.668Z,11.50
2023-08-18T21:57:49.855Z,11.77
2023-08-18T22:00:18.183Z,15.00
2023-08-18T22:02:46.086Z,17.40
2023-08-18T22:05:15.286Z,16.58
2023-08-18T22:07:45.957Z,16.60
2023-08-18T22:10:14.028Z,16.83
2023-08-18T22:12:42.082Z,16.70
2023-08-18T22:15:13.259Z,16.90
2023-08-18T22:17:42.595Z,16.00
2023-08-18T22:20:11.450Z,15.52
2023-08-18T22:22:39.398Z,16.50
2023-08-18T22:25:08.147Z,16.33
2023-08-18T22:27:36.042Z,16.45
2023-08-18T22:30:05.138Z,17.00
2023-08-18T22:32:34.746Z,16.77
2023-08-18T22:35:03.279Z,17.10
2023-08-18T22:37:31.209Z,16.00
2023-08-18T22:39:59.005Z,16.75
2023-08-18T22:42:26.819Z,16.83
2023-08-18T22:44:54.876Z,15.55
2023-08-18T22:47:26.432Z,16.20
2023-08-18T22:49:55.780Z,15.95
2023-08-18T22:52:23.621Z,15.82
2023-08-18T22:54:51.454Z,16.38
2023-08-18T22:57:19.269Z,16.77
2023-08-18T22:59:47.075Z,17.00
2023-08-18T23:02:15.201Z,16.50
2023-08-18T23:04:43.002Z,15.68
2023-08-18T23:07:12.388Z,16.00
2023-08-18T23:09:40.233Z,15.80
2023-08-18T23:12:08.436Z,15.85
2023-08-18T23:14:36.356Z,16.52
2023-08-18T23:17:04.253Z,15.85
2023-08-18T23:19:32.297Z,15.65
2023-08-18T23:22:00.138Z,16.55
2023-08-18T23:24:29.305Z,15.88
2023-08-18T23:26:57.089Z,16.67
2023-08-18T23:29:24.994Z,16.25
2023-08-18T23:31:52.836Z,15.35
2023-08-18T23:34:20.772Z,16.02
2023-08-18T23:36:48.629Z,15.85
2023-08-18T23:39:16.606Z,16.60
2023-08-18T23:41:45.731Z,17.10
2023-08-18T23:44:13.933Z,17.98
2023-08-18T23:46:41.861Z,16.58
2023-08-18T23:49:09.806Z,16.58
2023-08-18T23:51:37.758Z,16.30
2023-08-18T23:54:06.630Z,15.82
2023-08-18T23:56:34.474Z,16.60
2023-08-18T23:59:03.959Z,15.82
